sensor_id;sensor_type;location;lat;lon;timestamp;P1;durP1;ratioP1;P2;durP2;ratioP2
71896;SDS011;59767;51.344;12.362;2022-10-26T00:02:45;12.70;;;3.58;;
71896;SDS011;59767;51.344;12.362;2022-10-26T00:05:49;11.20;;;3.80;;
71896;SDS011;59767;51.344;12.362;2022-10-26T00:08:54;14.48;;;4.13;;
71896;SDS011;59767;51.344;12.362;2022-10-26T00:11:59;10.90;;;3.92;;
71896;SDS011;59767;51.344;12.362;2022-10-26T00:15:03;11.80;;;4.18;;
71896;SDS011;59767;51.344;12.362;2022-10-26T00:18:08;10.32;;;4.15;;
71896;SDS011;59767;51.344;12.362;2022-10-26T00:21:12;11.63;;;3.63;;
71896;SDS011;59767;51.344;12.362;2022-10-26T00:24:16;11.05;;;4.18;;
71896;SDS011;59767;51.344;12.362;2022-10-26T00:27:21;12.02;;;4.50;;
71896;SDS011;59767;51.344;12.362;2022-10-26T00:30:25;10.50;;;4.00;;
71896;SDS011;59767;51.344;12.362;2022-10-26T00:33:29;9.90;;;3.88;;
71896;SDS011;59767;51.344;12.362;2022-10-26T00:36:33;13.75;;;3.75;;
71896;SDS011;59767;51.344;12.362;2022-10-26T00:39:37;10.23;;;3.70;;
71896;SDS011;59767;51.344;12.362;2022-10-26T00:42:41;8.95;;;3.67;;
71896;SDS011;59767;51.344;12.362;2022-10-26T00:45:46;9.93;;;3.85;;
71896;SDS011;59767;51.344;12.362;2022-10-26T00:48:54;10.60;;;3.83;;
71896;SDS011;59767;51.344;12.362;2022-10-26T00:52:04;11.85;;;3.75;;
71896;SDS011;59767;51.344;12.362;2022-10-26T00:55:11;12.60;;;3.92;;
71896;SDS011;59767;51.344;12.362;2022-10-26T00:58:15;11.23;;;3.58;;
71896;SDS011;59767;51.344;12.362;2022-10-26T01:01:20;13.27;;;4.15;;
71896;SDS011;59767;51.344;12.362;2022-10-26T01:04:24;9.82;;;3.40;;
71896;SDS011;59767;51.344;12.362;2022-10-26T01:07:28;11.20;;;3.80;;
71896;SDS011;59767;51.344;12.362;2022-10-26T01:10:33;12.02;;;3.58;;
71896;SDS011;59767;51.344;12.362;2022-10-26T01:13:38;9.50;;;3.53;;
71896;SDS011;59767;51.344;12.362;2022-10-26T01:20:33;10.27;;;3.78;;
71896;SDS011;59767;51.344;12.362;2022-10-26T01:24:05;11.23;;;4.20;;
71896;SDS011;59767;51.344;12.362;2022-10-26T01:30:29;16.10;;;3.83;;
71896;SDS011;59767;51.344;12.362;2022-10-26T01:33:51;10.07;;;3.53;;
71896;SDS011;59767;51.344;12.362;2022-10-26T01:37:08;13.48;;;3.90;;
71896;SDS011;59767;51.344;12.362;2022-10-26T01:40:24;10.38;;;3.50;;
71896;SDS011;59767;51.344;12.362;2022-10-26T01:43:32;11.23;;;3.60;;
71896;SDS011;59767;51.344;12.362;2022-10-26T01:46:40;12.50;;;3.50;;
71896;SDS011;59767;51.344;12.362;2022-10-26T01:49:51;16.58;;;4.13;;
71896;SDS011;59767;51.344;12.362;2022-10-26T01:52:58;13.30;;;4.13;;
71896;SDS011;59767;51.344;12.362;2022-10-26T01:56:02;15.02;;;4.15;;
71896;SDS011;59767;51.344;12.362;2022-10-26T02:05:44;11.82;;;3.70;;
71896;SDS011;59767;51.344;12.362;2022-10-26T02:09:01;9.57;;;3.40;;
71896;SDS011;59767;51.344;12.362;2022-10-26T02:16:03;11.60;;;3.85;;
71896;SDS011;59767;51.344;12.362;2022-10-26T02:22:46;9.15;;;3.60;;
71896;SDS011;59767;51.344;12.362;2022-10-26T02:25:54;10.98;;;3.55;;
71896;SDS011;59767;51.344;12.362;2022-10-26T02:29:03;9.73;;;3.50;;
71896;SDS011;59767;51.344;12.362;2022-10-26T02:32:10;13.07;;;3.55;;
71896;SDS011;59767;51.344;12.362;2022-10-26T02:35:15;11.82;;;4.25;;
71896;SDS011;59767;51.344;12.362;2022-10-26T02:38:22;11.23;;;3.70;;
71896;SDS011;59767;51.344;12.362;2022-10-26T02:41:27;10.80;;;3.75;;
71896;SDS011;59767;51.344;12.362;2022-10-26T02:44:35;10.77;;;3.78;;
71896;SDS011;59767;51.344;12.362;2022-10-26T02:47:45;11.45;;;4.10;;
71896;SDS011;59767;51.344;12.362;2022-10-26T02:50:58;11.23;;;4.03;;
71896;SDS011;59767;51.344;12.362;2022-10-26T02:54:09;14.32;;;4.20;;
71896;SDS011;59767;51.344;12.362;2022-10-26T02:57:19;14.93;;;3.95;;
71896;SDS011;59767;51.344;12.362;2022-10-26T03:00:29;11.13;;;4.65;;
71896;SDS011;59767;51.344;12.362;2022-10-26T03:03:33;14.40;;;4.57;;
71896;SDS011;59767;51.344;12.362;2022-10-26T03:06:38;14.13;;;4.90;;
71896;SDS011;59767;51.344;12.362;2022-10-26T03:09:42;12.65;;;4.50;;
71896;SDS011;59767;51.344;12.362;2022-10-26T03:12:45;14.38;;;4.63;;
71896;SDS011;59767;51.344;12.362;2022-10-26T03:15:53;14.13;;;4.70;;
71896;SDS011;59767;51.344;12.362;2022-10-26T03:18:59;13.18;;;5.03;;
71896;SDS011;59767;51.344;12.362;2022-10-26T03:22:03;13.38;;;4.68;;
71896;SDS011;59767;51.344;12.362;2022-10-26T03:25:07;13.35;;;4.28;;
71896;SDS011;59767;51.344;12.362;2022-10-26T03:28:16;10.98;;;4.20;;
71896;SDS011;59767;51.344;12.362;2022-10-26T03:31:19;10.18;;;4.55;;
71896;SDS011;59767;51.344;12.362;2022-10-26T03:34:23;10.43;;;4.10;;
71896;SDS011;59767;51.344;12.362;2022-10-26T03:37:28;13.57;;;4.80;;
71896;SDS011;59767;51.344;12.362;2022-10-26T03:40:32;11.13;;;4.40;;
71896;SDS011;59767;51.344;12.362;2022-10-26T03:43:38;15.48;;;4.43;;
71896;SDS011;59767;51.344;12.362;2022-10-26T03:46:42;13.65;;;4.07;;
71896;SDS011;59767;51.344;12.362;2022-10-26T03:49:46;14.73;;;4.63;;
71896;SDS011;59767;51.344;12.362;2022-10-26T03:52:50;10.27;;;4.13;;
71896;SDS011;59767;51.344;12.362;2022-10-26T03:55:55;14.70;;;4.40;;
71896;SDS011;59767;51.344;12.362;2022-10-26T03:58:59;10.05;;;4.20;;
71896;SDS011;59767;51.344;12.362;2022-10-26T04:02:03;12.90;;;4.47;;
71896;SDS011;59767;51.344;12.362;2022-10-26T04:05:07;10.70;;;3.97;;
71896;SDS011;59767;51.344;12.362;2022-10-26T04:08:11;12.57;;;4.43;;
71896;SDS011;59767;51.344;12.362;2022-10-26T04:11:16;10.60;;;3.72;;
71896;SDS011;59767;51.344;12.362;2022-10-26T04:14:19;11.60;;;4.45;;
71896;SDS011;59767;51.344;12.362;2022-10-26T04:17:23;11.18;;;4.22;;
71896;SDS011;59767;51.344;12.362;2022-10-26T04:20:28;12.57;;;4.60;;
71896;SDS011;59767;51.344;12.362;2022-10-26T04:23:32;10.85;;;4.30;;
71896;SDS011;59767;51.344;12.362;2022-10-26T04:26:37;13.30;;;4.10;;
71896;SDS011;59767;51.344;12.362;2022-10-26T04:29:40;8.75;;;3.78;;
71896;SDS011;59767;51.344;12.362;2022-10-26T04:32:44;11.52;;;4.00;;
71896;SDS011;59767;51.344;12.362;2022-10-26T04:35:48;17.88;;;4.10;;
71896;SDS011;59767;51.344;12.362;2022-10-26T04:38:52;14.43;;;4.00;;
71896;SDS011;59767;51.344;12.362;2022-10-26T04:41:56;10.68;;;3.85;;
71896;SDS011;59767;51.344;12.362;2022-10-26T04:45:00;14.82;;;4.40;;
71896;SDS011;59767;51.344;12.362;2022-10-26T04:48:04;10.00;;;4.18;;
71896;SDS011;59767;51.344;12.362;2022-10-26T04:51:10;9.52;;;3.58;;
71896;SDS011;59767;51.344;12.362;2022-10-26T04:54:14;9.95;;;3.78;;
71896;SDS011;59767;51.344;12.362;2022-10-26T04:57:18;7.97;;;3.53;;
71896;SDS011;59767;51.344;12.362;2022-10-26T05:00:22;12.13;;;3.75;;
71896;SDS011;59767;51.344;12.362;2022-10-26T05:03:26;9.63;;;3.53;;
71896;SDS011;59767;51.344;12.362;2022-10-26T05:06:30;10.60;;;3.60;;
71896;SDS011;59767;51.344;12.362;2022-10-26T05:09:34;9.70;;;3.20;;
71896;SDS011;59767;51.344;12.362;2022-10-26T05:12:38;7.78;;;3.22;;
71896;SDS011;59767;51.344;12.362;2022-10-26T05:15:42;14.13;;;3.35;;
71896;SDS011;59767;51.344;12.362;2022-10-26T05:18:49;8.55;;;2.92;;
71896;SDS011;59767;51.344;12.362;2022-10-26T05:21:53;10.80;;;3.45;;
71896;SDS011;59767;51.344;12.362;2022-10-26T05:24:57;8.52;;;2.85;;
71896;SDS011;59767;51.344;12.362;2022-10-26T05:28:02;9.30;;;2.90;;
71896;SDS011;59767;51.344;12.362;2022-10-26T05:31:08;9.25;;;3.03;;
71896;SDS011;59767;51.344;12.362;2022-10-26T05:34:11;11.73;;;3.20;;
71896;SDS011;59767;51.344;12.362;2022-10-26T05:37:15;7.75;;;2.70;;
71896;SDS011;59767;51.344;12.362;2022-10-26T05:40:19;10.52;;;3.10;;
71896;SDS011;59767;51.344;12.362;2022-10-26T05:43:24;10.93;;;2.65;;
71896;SDS011;59767;51.344;12.362;2022-10-26T05:46:29;10.18;;;2.80;;
71896;SDS011;59767;51.344;12.362;2022-10-26T05:49:33;8.68;;;2.95;;
71896;SDS011;59767;51.344;12.362;2022-10-26T05:52:40;13.23;;;3.08;;
71896;SDS011;59767;51.344;12.362;2022-10-26T05:55:46;10.30;;;2.70;;
71896;SDS011;59767;51.344;12.362;2022-10-26T05:58:50;7.07;;;2.83;;
71896;SDS011;59767;51.344;12.362;2022-10-26T06:05:22;10.98;;;2.58;;
71896;SDS011;59767;51.344;12.362;2022-10-26T06:08:30;9.38;;;2.55;;
71896;SDS011;59767;51.344;12.362;2022-10-26T06:11:34;9.20;;;2.58;;
71896;SDS011;59767;51.344;12.362;2022-10-26T06:14:38;10.65;;;2.35;;
71896;SDS011;59767;51.344;12.362;2022-10-26T06:17:50;7.18;;;2.13;;
71896;SDS011;59767;51.344;12.362;2022-10-26T06:28:11;8.65;;;2.33;;
71896;SDS011;59767;51.344;12.362;2022-10-26T06:31:28;9.30;;;2.40;;
71896;SDS011;59767;51.344;12.362;2022-10-26T06:34:32;10.75;;;2.28;;
71896;SDS011;59767;51.344;12.362;2022-10-26T06:37:38;9.93;;;2.40;;
71896;SDS011;59767;51.344;12.362;2022-10-26T06:40:45;7.13;;;2.20;;
71896;SDS011;59767;51.344;12.362;2022-10-26T06:43:53;9.73;;;2.30;;
71896;SDS011;59767;51.344;12.362;2022-10-26T06:50:44;8.10;;;2.13;;
71896;SDS011;59767;51.344;12.362;2022-10-26T06:57:08;7.63;;;2.15;;
71896;SDS011;59767;51.344;12.362;2022-10-26T07:03:26;7.05;;;2.08;;
71896;SDS011;59767;51.344;12.362;2022-10-26T07:06:30;9.27;;;2.30;;
71896;SDS011;59767;51.344;12.362;2022-10-26T07:09:38;7.63;;;2.50;;
71896;SDS011;59767;51.344;12.362;2022-10-26T07:12:42;9.55;;;2.45;;
71896;SDS011;59767;51.344;12.362;2022-10-26T07:15:46;12.52;;;2.30;;
71896;SDS011;59767;51.344;12.362;2022-10-26T07:18:50;10.05;;;2.50;;
71896;SDS011;59767;51.344;12.362;2022-10-26T07:21:55;7.18;;;2.38;;
71896;SDS011;59767;51.344;12.362;2022-10-26T07:25:00;13.30;;;2.47;;
71896;SDS011;59767;51.344;12.362;2022-10-26T07:28:07;15.35;;;2.40;;
71896;SDS011;59767;51.344;12.362;2022-10-26T07:31:13;7.90;;;2.28;;
71896;SDS011;59767;51.344;12.362;2022-10-26T07:34:16;12.45;;;2.40;;
71896;SDS011;59767;51.344;12.362;2022-10-26T07:37:20;7.20;;;2.25;;
71896;SDS011;59767;51.344;12.362;2022-10-26T07:40:24;10.13;;;2.45;;
71896;SDS011;59767;51.344;12.362;2022-10-26T07:43:28;9.60;;;2.30;;
71896;SDS011;59767;51.344;12.362;2022-10-26T07:46:32;7.97;;;2.33;;
71896;SDS011;59767;51.344;12.362;2022-10-26T07:49:36;7.30;;;2.50;;
71896;SDS011;59767;51.344;12.362;2022-10-26T07:52:40;8.55;;;2.30;;
71896;SDS011;59767;51.344;12.362;2022-10-26T07:55:51;5.88;;;2.22;;
71896;SDS011;59767;51.344;12.362;2022-10-26T07:58:57;5.50;;;2.20;;
71896;SDS011;59767;51.344;12.362;2022-10-26T08:02:01;7.68;;;2.35;;
71896;SDS011;59767;51.344;12.362;2022-10-26T08:05:05;10.75;;;2.40;;
71896;SDS011;59767;51.344;12.362;2022-10-26T08:08:10;7.90;;;2.50;;
71896;SDS011;59767;51.344;12.362;2022-10-26T08:11:14;9.90;;;2.17;;
71896;SDS011;59767;51.344;12.362;2022-10-26T08:14:19;7.38;;;2.15;;
71896;SDS011;59767;51.344;12.362;2022-10-26T08:17:23;12.65;;;2.70;;
71896;SDS011;59767;51.344;12.362;2022-10-26T08:20:27;11.50;;;2.65;;
71896;SDS011;59767;51.344;12.362;2022-10-26T08:23:31;7.53;;;2.88;;
71896;SDS011;59767;51.344;12.362;2022-10-26T08:26:35;7.20;;;2.47;;
71896;SDS011;59767;51.344;12.362;2022-10-26T08:29:40;10.23;;;2.67;;
71896;SDS011;59767;51.344;12.362;2022-10-26T08:32:44;9.98;;;2.30;;
71896;SDS011;59767;51.344;12.362;2022-10-26T08:35:48;10.68;;;2.20;;
71896;SDS011;59767;51.344;12.362;2022-10-26T08:38:58;11.60;;;2.70;;
71896;SDS011;59767;51.344;12.362;2022-10-26T08:42:04;11.25;;;2.40;;
71896;SDS011;59767;51.344;12.362;2022-10-26T08:45:31;10.02;;;2.28;;
71896;SDS011;59767;51.344;12.362;2022-10-26T08:48:49;8.45;;;2.28;;
71896;SDS011;59767;51.344;12.362;2022-10-26T08:51:59;11.88;;;2.40;;
71896;SDS011;59767;51.344;12.362;2022-10-26T08:55:05;10.73;;;2.70;;
71896;SDS011;59767;51.344;12.362;2022-10-26T08:58:20;11.20;;;2.50;;
71896;SDS011;59767;51.344;12.362;2022-10-26T09:01:32;8.75;;;2.22;;
71896;SDS011;59767;51.344;12.362;2022-10-26T09:04:36;9.27;;;2.50;;
71896;SDS011;59767;51.344;12.362;2022-10-26T09:11:19;10.45;;;2.60;;
71896;SDS011;59767;51.344;12.362;2022-10-26T09:14:38;8.65;;;2.55;;
71896;SDS011;59767;51.344;12.362;2022-10-26T09:21:39;9.48;;;2.40;;
71896;SDS011;59767;51.344;12.362;2022-10-26T09:24:55;9.38;;;2.33;;
71896;SDS011;59767;51.344;12.362;2022-10-26T09:28:07;6.93;;;1.90;;
71896;SDS011;59767;51.344;12.362;2022-10-26T09:31:20;8.35;;;2.30;;
71896;SDS011;59767;51.344;12.362;2022-10-26T09:34:26;7.00;;;2.10;;
71896;SDS011;59767;51.344;12.362;2022-10-26T09:37:39;7.88;;;2.40;;
71896;SDS011;59767;51.344;12.362;2022-10-26T09:41:52;11.38;;;2.60;;
71896;SDS011;59767;51.344;12.362;2022-10-26T09:44:43;9.02;;;2.10;;
71896;SDS011;59767;51.344;12.362;2022-10-26T09:47:53;9.70;;;2.30;;
71896;SDS011;59767;51.344;12.362;2022-10-26T09:51:01;9.38;;;2.10;;
71896;SDS011;59767;51.344;12.362;2022-10-26T09:54:14;11.05;;;2.35;;
71896;SDS011;59767;51.344;12.362;2022-10-26T09:57:21;8.63;;;2.00;;
71896;SDS011;59767;51.344;12.362;2022-10-26T10:00:26;13.55;;;2.90;;
71896;SDS011;59767;51.344;12.362;2022-10-26T10:03:31;10.23;;;2.00;;
71896;SDS011;59767;51.344;12.362;2022-10-26T10:06:36;10.02;;;2.40;;
71896;SDS011;59767;51.344;12.362;2022-10-26T10:09:40;10.57;;;2.25;;
71896;SDS011;59767;51.344;12.362;2022-10-26T10:12:44;10.25;;;2.42;;
71896;SDS011;59767;51.344;12.362;2022-10-26T10:15:51;7.82;;;1.70;;
71896;SDS011;59767;51.344;12.362;2022-10-26T10:18:57;8.88;;;2.30;;
71896;SDS011;59767;51.344;12.362;2022-10-26T10:25:31;6.38;;;1.90;;
71896;SDS011;59767;51.344;12.362;2022-10-26T10:28:40;9.60;;;2.28;;
71896;SDS011;59767;51.344;12.362;2022-10-26T10:31:45;6.90;;;1.98;;
71896;SDS011;59767;51.344;12.362;2022-10-26T10:34:59;7.00;;;2.00;;
71896;SDS011;59767;51.344;12.362;2022-10-26T10:38:03;7.47;;;2.10;;
71896;SDS011;59767;51.344;12.362;2022-10-26T10:41:18;8.60;;;2.40;;
71896;SDS011;59767;51.344;12.362;2022-10-26T10:44:28;10.35;;;2.40;;
71896;SDS011;59767;51.344;12.362;2022-10-26T10:47:35;8.48;;;1.88;;
71896;SDS011;59767;51.344;12.362;2022-10-26T10:50:54;8.63;;;2.30;;
71896;SDS011;59767;51.344;12.362;2022-10-26T10:54:00;10.23;;;2.30;;
71896;SDS011;59767;51.344;12.362;2022-10-26T10:57:10;7.57;;;2.13;;
71896;SDS011;59767;51.344;12.362;2022-10-26T11:00:25;9.23;;;2.50;;
71896;SDS011;59767;51.344;12.362;2022-10-26T11:03:42;11.50;;;2.53;;
71896;SDS011;59767;51.344;12.362;2022-10-26T11:06:56;12.63;;;2.25;;
71896;SDS011;59767;51.344;12.362;2022-10-26T11:10:04;12.80;;;2.50;;
71896;SDS011;59767;51.344;12.362;2022-10-26T11:13:12;16.98;;;2.70;;
71896;SDS011;59767;51.344;12.362;2022-10-26T11:16:31;11.48;;;2.50;;
71896;SDS011;59767;51.344;12.362;2022-10-26T11:19:41;8.93;;;2.38;;
71896;SDS011;59767;51.344;12.362;2022-10-26T11:26:18;10.02;;;2.55;;
71896;SDS011;59767;51.344;12.362;2022-10-26T11:32:56;7.25;;;1.90;;
71896;SDS011;59767;51.344;12.362;2022-10-26T11:36:03;10.13;;;2.30;;
71896;SDS011;59767;51.344;12.362;2022-10-26T11:39:13;10.05;;;2.30;;
71896;SDS011;59767;51.344;12.362;2022-10-26T11:42:25;9.38;;;2.17;;
71896;SDS011;59767;51.344;12.362;2022-10-26T11:45:41;8.50;;;2.10;;
71896;SDS011;59767;51.344;12.362;2022-10-26T11:48:53;7.63;;;2.30;;
71896;SDS011;59767;51.344;12.362;2022-10-26T11:55:27;10.20;;;2.03;;
71896;SDS011;59767;51.344;12.362;2022-10-26T11:58:32;8.48;;;1.70;;
71896;SDS011;59767;51.344;12.362;2022-10-26T12:01:36;8.75;;;2.10;;
71896;SDS011;59767;51.344;12.362;2022-10-26T12:04:40;6.22;;;1.70;;
71896;SDS011;59767;51.344;12.362;2022-10-26T12:07:52;5.88;;;1.80;;
71896;SDS011;59767;51.344;12.362;2022-10-26T12:11:10;8.23;;;1.98;;
71896;SDS011;59767;51.344;12.362;2022-10-26T12:21:03;12.13;;;1.90;;
71896;SDS011;59767;51.344;12.362;2022-10-26T12:30:42;7.20;;;1.90;;
71896;SDS011;59767;51.344;12.362;2022-10-26T12:33:49;7.55;;;1.60;;
71896;SDS011;59767;51.344;12.362;2022-10-26T12:40:37;5.88;;;1.80;;
71896;SDS011;59767;51.344;12.362;2022-10-26T12:43:39;6.43;;;1.90;;
71896;SDS011;59767;51.344;12.362;2022-10-26T12:46:43;7.10;;;1.88;;
71896;SDS011;59767;51.344;12.362;2022-10-26T12:50:17;7.63;;;2.08;;
71896;SDS011;59767;51.344;12.362;2022-10-26T12:53:25;7.43;;;2.08;;
71896;SDS011;59767;51.344;12.362;2022-10-26T12:59:49;8.25;;;1.85;;
71896;SDS011;59767;51.344;12.362;2022-10-26T13:09:57;10.38;;;1.90;;
71896;SDS011;59767;51.344;12.362;2022-10-26T13:16:11;12.75;;;2.00;;
71896;SDS011;59767;51.344;12.362;2022-10-26T13:19:22;7.57;;;1.95;;
71896;SDS011;59767;51.344;12.362;2022-10-26T13:22:34;6.13;;;1.85;;
71896;SDS011;59767;51.344;12.362;2022-10-26T13:29:16;9.35;;;2.00;;
71896;SDS011;59767;51.344;12.362;2022-10-26T13:32:20;9.25;;;1.80;;
71896;SDS011;59767;51.344;12.362;2022-10-26T13:35:24;5.82;;;1.70;;
71896;SDS011;59767;51.344;12.362;2022-10-26T13:38:30;5.50;;;1.73;;
71896;SDS011;59767;51.344;12.362;2022-10-26T13:41:35;5.38;;;1.60;;
71896;SDS011;59767;51.344;12.362;2022-10-26T13:44:59;6.18;;;1.83;;
71896;SDS011;59767;51.344;12.362;2022-10-26T13:48:18;6.60;;;2.00;;
71896;SDS011;59767;51.344;12.362;2022-10-26T13:51:39;4.70;;;1.58;;
71896;SDS011;59767;51.344;12.362;2022-10-26T13:54:52;7.47;;;2.00;;
71896;SDS011;59767;51.344;12.362;2022-10-26T14:01:21;6.28;;;1.85;;
71896;SDS011;59767;51.344;12.362;2022-10-26T14:04:27;7.60;;;2.35;;
71896;SDS011;59767;51.344;12.362;2022-10-26T14:07:38;6.53;;;1.98;;
71896;SDS011;59767;51.344;12.362;2022-10-26T14:11:02;6.75;;;1.90;;
71896;SDS011;59767;51.344;12.362;2022-10-26T14:14:27;6.78;;;1.80;;
71896;SDS011;59767;51.344;12.362;2022-10-26T14:17:33;5.10;;;1.95;;
71896;SDS011;59767;51.344;12.362;2022-10-26T14:20:37;7.45;;;2.28;;
71896;SDS011;59767;51.344;12.362;2022-10-26T14:26:51;6.80;;;2.20;;
71896;SDS011;59767;51.344;12.362;2022-10-26T14:29:55;7.68;;;2.17;;
71896;SDS011;59767;51.344;12.362;2022-10-26T14:33:22;7.82;;;2.08;;
71896;SDS011;59767;51.344;12.362;2022-10-26T14:36:38;7.13;;;2.17;;
71896;SDS011;59767;51.344;12.362;2022-10-26T14:39:49;8.25;;;1.98;;
71896;SDS011;59767;51.344;12.362;2022-10-26T14:42:54;6.50;;;2.05;;
71896;SDS011;59767;51.344;12.362;2022-10-26T14:46:01;9.85;;;2.25;;
71896;SDS011;59767;51.344;12.362;2022-10-26T14:49:05;10.75;;;2.30;;
71896;SDS011;59767;51.344;12.362;2022-10-26T14:52:09;7.90;;;2.30;;
71896;SDS011;59767;51.344;12.362;2022-10-26T14:55:17;4.82;;;1.90;;
71896;SDS011;59767;51.344;12.362;2022-10-26T14:58:26;7.18;;;2.10;;
71896;SDS011;59767;51.344;12.362;2022-10-26T15:01:50;9.55;;;2.38;;
71896;SDS011;59767;51.344;12.362;2022-10-26T15:05:00;9.57;;;2.15;;
71896;SDS011;59767;51.344;12.362;2022-10-26T15:11:59;8.35;;;2.28;;
71896;SDS011;59767;51.344;12.362;2022-10-26T15:18:26;8.85;;;2.17;;
71896;SDS011;59767;51.344;12.362;2022-10-26T15:21:34;7.93;;;2.28;;
71896;SDS011;59767;51.344;12.362;2022-10-26T15:24:42;7.18;;;2.20;;
71896;SDS011;59767;51.344;12.362;2022-10-26T15:27:49;9.82;;;2.55;;
71896;SDS011;59767;51.344;12.362;2022-10-26T15:30:58;7.80;;;1.90;;
71896;SDS011;59767;51.344;12.362;2022-10-26T15:34:15;7.38;;;2.28;;
71896;SDS011;59767;51.344;12.362;2022-10-26T15:37:19;9.13;;;2.80;;
71896;SDS011;59767;51.344;12.362;2022-10-26T15:40:26;5.65;;;2.20;;
71896;SDS011;59767;51.344;12.362;2022-10-26T15:43:32;8.57;;;2.65;;
71896;SDS011;59767;51.344;12.362;2022-10-26T15:46:36;8.30;;;2.70;;
71896;SDS011;59767;51.344;12.362;2022-10-26T15:49:41;8.27;;;2.55;;
71896;SDS011;59767;51.344;12.362;2022-10-26T15:52:45;10.48;;;2.60;;
71896;SDS011;59767;51.344;12.362;2022-10-26T15:55:52;8.95;;;2.92;;
71896;SDS011;59767;51.344;12.362;2022-10-26T15:58:58;10.63;;;2.97;;
71896;SDS011;59767;51.344;12.362;2022-10-26T16:02:10;9.63;;;2.92;;
71896;SDS011;59767;51.344;12.362;2022-10-26T16:05:16;6.82;;;3.00;;
71896;SDS011;59767;51.344;12.362;2022-10-26T16:08:20;8.10;;;2.83;;
71896;SDS011;59767;51.344;12.362;2022-10-26T16:11:24;11.75;;;2.80;;
71896;SDS011;59767;51.344;12.362;2022-10-26T16:14:28;9.00;;;2.97;;
71896;SDS011;59767;51.344;12.362;2022-10-26T16:17:36;7.53;;;2.53;;
71896;SDS011;59767;51.344;12.362;2022-10-26T16:20:40;8.98;;;3.80;;
71896;SDS011;59767;51.344;12.362;2022-10-26T16:23:48;9.20;;;3.70;;
71896;SDS011;59767;51.344;12.362;2022-10-26T16:26:53;11.50;;;3.10;;
71896;SDS011;59767;51.344;12.362;2022-10-26T16:29:58;11.82;;;3.38;;
71896;SDS011;59767;51.344;12.362;2022-10-26T16:33:01;9.95;;;3.08;;
71896;SDS011;59767;51.344;12.362;2022-10-26T16:36:06;8.90;;;3.25;;
71896;SDS011;59767;51.344;12.362;2022-10-26T16:39:11;13.85;;;3.10;;
71896;SDS011;59767;51.344;12.362;2022-10-26T16:42:15;11.30;;;3.42;;
71896;SDS011;59767;51.344;12.362;2022-10-26T16:45:19;10.52;;;3.00;;
71896;SDS011;59767;51.344;12.362;2022-10-26T16:48:23;9.65;;;4.32;;
71896;SDS011;59767;51.344;12.362;2022-10-26T16:51:27;9.30;;;3.63;;
71896;SDS011;59767;51.344;12.362;2022-10-26T16:54:31;13.32;;;3.88;;
71896;SDS011;59767;51.344;12.362;2022-10-26T16:57:35;11.23;;;3.90;;
71896;SDS011;59767;51.344;12.362;2022-10-26T17:00:40;11.93;;;4.00;;
71896;SDS011;59767;51.344;12.362;2022-10-26T17:03:47;10.98;;;3.92;;
71896;SDS011;59767;51.344;12.362;2022-10-26T17:06:53;15.23;;;5.72;;
71896;SDS011;59767;51.344;12.362;2022-10-26T17:09:56;10.43;;;3.97;;
71896;SDS011;59767;51.344;12.362;2022-10-26T17:13:00;12.50;;;3.90;;
71896;SDS011;59767;51.344;12.362;2022-10-26T17:16:08;12.27;;;4.13;;
71896;SDS011;59767;51.344;12.362;2022-10-26T17:19:14;10.75;;;4.22;;
71896;SDS011;59767;51.344;12.362;2022-10-26T17:22:17;12.07;;;3.63;;
71896;SDS011;59767;51.344;12.362;2022-10-26T17:25:22;9.80;;;4.07;;
71896;SDS011;59767;51.344;12.362;2022-10-26T17:28:26;12.18;;;4.47;;
71896;SDS011;59767;51.344;12.362;2022-10-26T17:31:30;10.18;;;3.95;;
71896;SDS011;59767;51.344;12.362;2022-10-26T17:34:34;11.95;;;4.22;;
71896;SDS011;59767;51.344;12.362;2022-10-26T17:37:38;11.63;;;4.35;;
71896;SDS011;59767;51.344;12.362;2022-10-26T17:40:43;12.63;;;4.40;;
71896;SDS011;59767;51.344;12.362;2022-10-26T17:43:47;13.85;;;4.70;;
71896;SDS011;59767;51.344;12.362;2022-10-26T17:46:52;13.55;;;4.90;;
71896;SDS011;59767;51.344;12.362;2022-10-26T17:49:57;14.63;;;4.60;;
71896;SDS011;59767;51.344;12.362;2022-10-26T17:53:01;14.70;;;4.80;;
71896;SDS011;59767;51.344;12.362;2022-10-26T17:56:06;16.20;;;5.32;;
71896;SDS011;59767;51.344;12.362;2022-10-26T17:59:12;18.17;;;4.57;;
71896;SDS011;59767;51.344;12.362;2022-10-26T18:02:16;10.23;;;3.90;;
71896;SDS011;59767;51.344;12.362;2022-10-26T18:05:20;11.07;;;4.15;;
71896;SDS011;59767;51.344;12.362;2022-10-26T18:08:25;13.25;;;4.15;;
71896;SDS011;59767;51.344;12.362;2022-10-26T18:11:29;13.00;;;4.43;;
71896;SDS011;59767;51.344;12.362;2022-10-26T18:14:39;14.88;;;5.15;;
71896;SDS011;59767;51.344;12.362;2022-10-26T18:17:42;11.38;;;5.50;;
71896;SDS011;59767;51.344;12.362;2022-10-26T18:20:47;14.48;;;4.80;;
71896;SDS011;59767;51.344;12.362;2022-10-26T18:23:51;10.68;;;4.43;;
71896;SDS011;59767;51.344;12.362;2022-10-26T18:26:56;11.88;;;4.70;;
71896;SDS011;59767;51.344;12.362;2022-10-26T18:30:00;13.95;;;5.32;;
71896;SDS011;59767;51.344;12.362;2022-10-26T18:33:04;11.32;;;4.93;;
71896;SDS011;59767;51.344;12.362;2022-10-26T18:36:09;20.40;;;4.95;;
71896;SDS011;59767;51.344;12.362;2022-10-26T18:39:15;12.65;;;4.53;;
71896;SDS011;59767;51.344;12.362;2022-10-26T18:42:19;15.27;;;4.63;;
71896;SDS011;59767;51.344;12.362;2022-10-26T18:45:23;21.65;;;4.38;;
71896;SDS011;59767;51.344;12.362;2022-10-26T18:48:27;15.98;;;4.32;;
71896;SDS011;59767;51.344;12.362;2022-10-26T18:51:31;13.40;;;4.45;;
71896;SDS011;59767;51.344;12.362;2022-10-26T18:54:37;10.95;;;4.22;;
71896;SDS011;59767;51.344;12.362;2022-10-26T18:57:41;12.30;;;4.63;;
71896;SDS011;59767;51.344;12.362;2022-10-26T19:00:44;12.95;;;4.88;;
71896;SDS011;59767;51.344;12.362;2022-10-26T19:03:53;11.88;;;4.88;;
71896;SDS011;59767;51.344;12.362;2022-10-26T19:06:58;13.15;;;4.75;;
71896;SDS011;59767;51.344;12.362;2022-10-26T19:10:04;12.75;;;4.75;;
71896;SDS011;59767;51.344;12.362;2022-10-26T19:13:08;16.90;;;5.28;;
71896;SDS011;59767;51.344;12.362;2022-10-26T19:16:13;14.98;;;4.90;;
71896;SDS011;59767;51.344;12.362;2022-10-26T19:19:38;16.80;;;5.63;;
71896;SDS011;59767;51.344;12.362;2022-10-26T19:22:42;17.92;;;6.00;;
71896;SDS011;59767;51.344;12.362;2022-10-26T19:25:52;18.17;;;5.25;;
71896;SDS011;59767;51.344;12.362;2022-10-26T19:28:59;15.75;;;5.13;;
71896;SDS011;59767;51.344;12.362;2022-10-26T19:32:04;17.70;;;5.25;;
71896;SDS011;59767;51.344;12.362;2022-10-26T19:35:08;12.43;;;4.70;;
71896;SDS011;59767;51.344;12.362;2022-10-26T19:38:12;12.85;;;5.55;;
71896;SDS011;59767;51.344;12.362;2022-10-26T19:41:16;17.20;;;5.95;;
71896;SDS011;59767;51.344;12.362;2022-10-26T19:44:20;16.00;;;5.25;;
71896;SDS011;59767;51.344;12.362;2022-10-26T19:47:28;14.90;;;5.63;;
71896;SDS011;59767;51.344;12.362;2022-10-26T19:50:32;16.20;;;5.30;;
71896;SDS011;59767;51.344;12.362;2022-10-26T19:56:39;19.52;;;5.75;;
71896;SDS011;59767;51.344;12.362;2022-10-26T19:59:43;11.65;;;5.28;;
71896;SDS011;59767;51.344;12.362;2022-10-26T20:02:47;12.25;;;5.07;;
71896;SDS011;59767;51.344;12.362;2022-10-26T20:05:56;14.98;;;6.75;;
71896;SDS011;59767;51.344;12.362;2022-10-26T20:09:01;20.00;;;5.72;;
71896;SDS011;59767;51.344;12.362;2022-10-26T20:12:05;13.95;;;5.90;;
71896;SDS011;59767;51.344;12.362;2022-10-26T20:15:10;16.75;;;5.75;;